Utica, Illinois
Current Conditions -  °F | °C
As of 4:15 AM on Sunday 25 Jan 2015 (Local Time) from KVYS Reporting Station
Haze Haze  
Wind Chill: 25°   Ceiling: 300
Heat Index: 34°   Visibility: 3mi
Dew Point: 33°   Wind: 13mph
Humidity: 97%   Direction: 70°ENE
Pressure: 29.63"   Gusts: NA
Location:  41.34°N, 89.01°W
Report Text: KVYS 251015Z AUTO 07011KT 3SM BR OVC003 01/01 A2963 RMK AO2 T00130008
Loading
Personal Weather Stations






























Interactive Weather Map New forecast layout! Learn more

10-Day Weather Forecast

Advertisements
Track Severe Weather on mobile